Time;durP1;ratioP1;P1;durP2;ratioP2;P2;SDS_P1;SDS_P2;PMS_P1;PMS_P2;Temp;Humidity;BMP_temperature;BMP_pressure;BME280_temperature;BME280_humidity;BME280_pressure;Samples;Min_cycle;Max_cycle;Signal;HPM_P1;HPM_P2
2021/07/31 00:01:23;;;;;;;34.45;22.63;;;;;;;22.74;91.47;96508.34;5004956;28;20054;-58
2021/07/31 00:03:50;;;;;;;33.75;21.90;;;;;;;22.62;89.53;96500.75;5006497;28;20072;-59
2021/07/31 00:06:28;;;;;;;29.92;19.60;;;;;;;22.45;88.14;96483.22;5005889;28;20054;-61
2021/07/31 00:08:54;;;;;;;25.65;19.15;;;;;;;22.58;86.78;96500.09;5004838;28;20065;-59
2021/07/31 00:11:21;;;;;;;28.70;19.15;;;;;;;22.52;88.10;96507.59;5006455;28;20065;-58
2021/07/31 00:13:48;;;;;;;28.77;21.20;;;;;;;22.32;90.41;96505.88;5004360;28;20065;-59
2021/07/31 00:16:15;;;;;;;28.98;20.00;;;;;;;22.18;90.31;96512.06;5004623;28;20429;-60
2021/07/31 00:18:42;;;;;;;27.77;19.30;;;;;;;22.29;90.10;96501.16;5005053;28;20169;-59
2021/07/31 00:21:08;;;;;;;27.40;20.75;;;;;;;22.01;89.27;96465.53;5005113;28;20472;-59
2021/07/31 00:23:35;;;;;;;28.75;19.33;;;;;;;21.52;91.61;96430.66;5004422;28;20057;-60
2021/07/31 00:26:02;;;;;;;24.10;21.25;;;;;;;22.00;91.29;96494.97;5006128;28;20053;-59
2021/07/31 00:28:29;;;;;;;28.10;20.45;;;;;;;21.99;90.99;96493.41;5004647;28;20057;-59
2021/07/31 00:30:56;;;;;;;26.73;19.27;;;;;;;22.11;89.31;96489.72;5003308;28;20061;-59
2021/07/31 00:33:23;;;;;;;27.10;19.38;;;;;;;22.10;88.28;96488.16;5005607;28;20049;-60
2021/07/31 00:35:49;;;;;;;29.45;20.10;;;;;;;22.06;88.82;96492.38;5004172;28;20061;-60
2021/07/31 00:38:16;;;;;;;24.42;18.98;;;;;;;22.06;88.05;96484.72;5006371;28;20657;-59
2021/07/31 00:40:43;;;;;;;30.00;18.55;;;;;;;22.06;87.79;96483.91;5004398;28;20057;-59
2021/07/31 00:43:10;;;;;;;31.35;18.55;;;;;;;21.52;88.33;96407.31;5004534;28;20054;-62
2021/07/31 00:45:36;;;;;;;23.83;18.30;;;;;;;21.79;88.11;96442.19;5005715;28;20057;-59
2021/07/31 00:48:05;;;;;;;30.17;18.30;;;;;;;21.67;86.60;96425.31;5005668;28;20580;-58
2021/07/31 00:50:33;;;;;;;32.58;20.23;;;;;;;21.63;86.99;96431.06;5004125;28;20061;-59
2021/07/31 00:53:00;;;;;;;30.98;21.08;;;;;;;21.96;90.21;96491.50;5005611;28;20067;-59
2021/07/31 00:55:29;;;;;;;35.72;23.30;;;;;;;21.77;91.99;96452.34;5005809;28;20113;-58
2021/07/31 00:57:57;;;;;;;38.30;23.42;;;;;;;21.98;93.39;96491.84;5005799;28;20066;-59
2021/07/31 01:00:25;;;;;;;35.97;23.75;;;;;;;21.94;94.51;96490.41;5003746;28;20551;-60
2021/07/31 01:02:52;;;;;;;96.30;38.88;;;;;;;21.56;95.42;96476.41;5004104;28;20085;-58
2021/07/31 01:05:20;;;;;;;62.85;32.55;;;;;;;21.73;96.86;96475.00;5003220;28;20063;-58
2021/07/31 01:07:50;;;;;;;53.17;31.27;;;;;;;21.88;97.20;96476.09;5005679;28;20054;-60
2021/07/31 01:10:18;;;;;;;36.17;26.38;;;;;;;22.00;97.58;96477.28;5004088;28;20438;-58
2021/07/31 01:12:47;;;;;;;38.63;27.25;;;;;;;21.94;97.99;96474.25;5005579;28;20050;-59
2021/07/31 01:15:15;;;;;;;31.00;20.60;;;;;;;21.96;91.89;96473.78;5005164;28;20109;-58
2021/07/31 01:17:42;;;;;;;26.88;20.75;;;;;;;21.91;90.68;96471.56;5004011;28;20061;-61
2021/07/31 01:20:10;;;;;;;30.60;20.15;;;;;;;21.85;90.27;96468.56;5003363;28;20057;-59
2021/07/31 01:22:37;;;;;;;27.35;19.92;;;;;;;21.45;90.64;96405.53;5004686;28;20133;-58
2021/07/31 01:25:05;;;;;;;24.20;19.90;;;;;;;21.82;90.64;96469.47;5002859;28;20064;-58
2021/07/31 01:27:32;;;;;;;29.92;20.70;;;;;;;21.67;89.55;96456.31;5005303;28;20053;-59
2021/07/31 01:29:59;;;;;;;30.58;20.40;;;;;;;21.44;89.74;96434.97;5003805;28;20049;-58
2021/07/31 01:32:26;;;;;;;33.58;20.90;;;;;;;20.87;90.12;96356.47;5004424;28;20057;-59
2021/07/31 01:34:52;;;;;;;28.17;19.05;;;;;;;21.28;90.16;96415.41;5003631;28;20090;-59
2021/07/31 01:37:19;;;;;;;23.02;18.33;;;;;;;21.07;88.84;96390.78;5003411;28;20060;-59
2021/07/31 01:39:49;;;;;;;26.42;19.42;;;;;;;21.30;89.96;96424.19;5003426;28;20569;-61
2021/07/31 01:42:17;;;;;;;29.48;19.33;;;;;;;21.62;90.40;96457.69;5002835;28;20160;-58
2021/07/31 01:44:44;;;;;;;25.52;18.92;;;;;;;21.55;90.66;96457.94;5002964;28;20069;-60
2021/07/31 01:47:10;;;;;;;26.65;18.50;;;;;;;21.58;90.54;96462.66;5004405;28;20053;-60
2021/07/31 01:49:37;;;;;;;33.20;18.58;;;;;;;21.48;90.32;96441.25;5004131;28;20057;-59
2021/07/31 01:52:04;;;;;;;28.00;19.50;;;;;;;21.24;90.78;96430.88;5002877;28;20548;-59
2021/07/31 01:54:31;;;;;;;27.15;19.52;;;;;;;21.59;89.65;96458.56;5003347;28;20054;-59
2021/07/31 01:56:58;;;;;;;30.30;20.05;;;;;;;21.65;90.36;96468.06;5003131;28;20068;-60
2021/07/31 01:59:25;;;;;;;31.75;20.83;;;;;;;21.64;90.60;96463.63;5003574;28;20527;-61
2021/07/31 02:01:52;;;;;;;30.27;21.33;;;;;;;21.57;90.32;96466.72;5004022;28;20065;-59
2021/07/31 02:04:19;;;;;;;27.75;20.40;;;;;;;21.67;88.79;96471.19;5004315;28;20058;-60
2021/07/31 02:06:46;;;;;;;29.40;21.23;;;;;;;21.70;89.98;96470.28;5004207;28;20079;-59
2021/07/31 02:09:12;;;;;;;25.35;19.20;;;;;;;21.37;88.97;96463.38;5002950;28;20061;-59
2021/07/31 02:11:39;;;;;;;28.88;19.35;;;;;;;21.38;88.05;96407.81;5002490;28;20172;-60
2021/07/31 02:14:06;;;;;;;24.95;19.05;;;;;;;21.78;88.25;96477.25;5002404;28;20163;-59
2021/07/31 02:16:32;;;;;;;35.35;19.98;;;;;;;21.50;87.98;96438.78;5002738;28;20096;-58
2021/07/31 02:18:59;;;;;;;24.80;20.45;;;;;;;21.32;89.78;96418.91;5002648;28;20057;-59
2021/07/31 02:21:26;;;;;;;26.60;20.25;;;;;;;21.64;90.41;96472.09;5003674;28;20049;-59
2021/07/31 02:23:53;;;;;;;28.10;19.77;;;;;;;21.58;91.42;96473.94;5002722;28;20141;-58
2021/07/31 02:26:20;;;;;;;29.15;19.27;;;;;;;21.37;89.95;96435.22;5003881;28;20136;-60
2021/07/31 02:28:47;;;;;;;27.17;18.48;;;;;;;21.46;89.40;96431.69;5002666;28;20045;-58
2021/07/31 02:31:14;;;;;;;32.22;19.02;;;;;;;21.64;88.19;96455.19;5002969;28;20050;-59
2021/07/31 02:33:41;;;;;;;29.70;19.55;;;;;;;21.71;88.09;96466.22;5002481;28;20084;-59
2021/07/31 02:36:08;;;;;;;24.40;19.30;;;;;;;21.62;86.82;96474.59;5002253;28;20054;-58
2021/07/31 02:38:37;;;;;;;27.80;19.60;;;;;;;21.58;88.38;96468.28;5003226;28;20448;-59
2021/07/31 02:41:04;;;;;;;32.45;20.73;;;;;;;21.69;89.52;96473.53;5002315;28;20057;-58
2021/07/31 02:43:31;;;;;;;30.50;22.50;;;;;;;21.66;89.59;96468.81;5002168;28;20145;-60
2021/07/31 02:46:08;;;;;;;27.23;20.63;;;;;;;21.65;89.88;96467.25;5002019;28;20058;-58
2021/07/31 02:48:37;;;;;;;31.67;20.02;;;;;;;21.59;89.47;96464.22;5002396;28;20069;-58
2021/07/31 02:51:05;;;;;;;27.17;19.65;;;;;;;21.27;90.81;96453.28;5002550;28;20535;-58
2021/07/31 02:53:32;;;;;;;29.70;19.58;;;;;;;21.17;89.38;96420.63;5003841;28;20504;-59
2021/07/31 02:55:59;;;;;;;28.15;19.17;;;;;;;21.35;90.49;96460.25;5006567;28;20049;-59
2021/07/31 02:58:26;;;;;;;22.98;18.52;;;;;;;21.21;90.54;96472.00;5006108;28;20053;-58
2021/07/31 03:00:53;;;;;;;25.13;19.55;;;;;;;21.30;91.10;96469.28;5005849;28;20072;-58
2021/07/31 03:03:21;;;;;;;27.45;19.77;;;;;;;21.05;90.02;96438.34;5005917;28;20075;-60
2021/07/31 03:05:55;;;;;;;27.70;18.98;;;;;;;21.41;90.05;96469.72;5006821;28;20116;-58
2021/07/31 03:08:23;;;;;;;31.00;21.67;;;;;;;21.44;88.71;96474.44;5006419;28;20057;-61
2021/07/31 03:10:54;;;;;;;30.80;20.67;;;;;;;21.31;88.95;96470.09;5005872;28;20442;-58
2021/07/31 03:13:21;;;;;;;31.52;21.08;;;;;;;21.40;89.79;96473.78;5005775;28;20081;-59
2021/07/31 03:15:47;;;;;;;26.02;19.58;;;;;;;20.50;89.22;96324.34;5005640;28;20058;-62
2021/07/31 03:18:14;;;;;;;27.65;18.65;;;;;;;21.25;87.63;96436.03;5005911;28;20427;-58
2021/07/31 03:20:45;;;;;;;29.48;19.45;;;;;;;20.62;87.95;96342.44;5005538;28;20425;-58
2021/07/31 03:23:14;;;;;;;25.05;18.80;;;;;;;21.35;87.82;96465.09;5007827;28;20060;-59
2021/07/31 03:25:40;;;;;;;25.83;20.02;;;;;;;21.25;90.30;96461.41;5005936;28;20061;-59
2021/07/31 03:28:07;;;;;;;28.42;20.17;;;;;;;21.17;91.39;96462.88;5007188;28;20050;-59
2021/07/31 03:30:34;;;;;;;29.30;20.00;;;;;;;20.76;90.34;96395.44;5005619;28;20061;-58
2021/07/31 03:33:00;;;;;;;30.25;20.05;;;;;;;21.40;89.08;96485.06;5005459;28;20138;-59
2021/07/31 03:35:27;;;;;;;25.77;19.05;;;;;;;21.25;87.92;96450.13;5006680;28;20140;-60
2021/07/31 03:37:54;;;;;;;23.88;18.88;;;;;;;21.49;87.34;96487.94;5007088;28;20053;-59
2021/07/31 03:40:21;;;;;;;26.65;19.67;;;;;;;21.31;86.64;96439.84;5006781;28;20054;-60
2021/07/31 03:42:48;;;;;;;30.23;19.85;;;;;;;21.54;87.76;96470.47;5005646;28;20054;-59
2021/07/31 03:45:14;;;;;;;28.67;19.98;;;;;;;21.53;89.40;96485.78;5005180;28;20519;-58
2021/07/31 03:47:41;;;;;;;27.90;19.60;;;;;;;21.42;87.92;96454.38;5005581;28;20053;-61
2021/07/31 03:50:08;;;;;;;27.00;17.98;;;;;;;21.78;87.64;96482.13;5005056;28;20062;-60
2021/07/31 03:52:35;;;;;;;28.75;17.88;;;;;;;21.60;87.08;96440.44;5006496;28;20050;-57
2021/07/31 03:55:04;;;;;;;26.63;17.33;;;;;;;22.03;84.57;96474.34;5006229;28;20062;-58
2021/07/31 03:57:31;;;;;;;21.98;16.17;;;;;;;22.06;83.80;96479.06;5006475;28;20528;-58
2021/07/31 03:59:59;;;;;;;21.10;17.67;;;;;;;21.70;85.30;96436.47;5006055;28;20128;-59
2021/07/31 04:02:26;;;;;;;24.58;18.75;;;;;;;22.14;85.18;96494.50;5004899;28;20582;-60
2021/07/31 04:04:53;;;;;;;28.95;18.48;;;;;;;21.77;84.54;96424.94;5006220;28;20068;-58
2021/07/31 04:07:20;;;;;;;25.95;17.00;;;;;;;22.18;83.99;96478.19;5004659;28;20464;-62
2021/07/31 04:09:47;;;;;;;23.73;17.05;;;;;;;22.21;83.93;96482.91;5004937;28;20050;-59
2021/07/31 04:12:14;;;;;;;25.00;16.02;;;;;;;22.59;81.35;96493.22;5005996;28;20068;-59
2021/07/31 04:14:40;;;;;;;28.98;18.42;;;;;;;22.75;80.89;96487.31;5004316;28;20823;-59
2021/07/31 04:17:07;;;;;;;34.45;18.45;;;;;;;22.38;83.59;96491.97;5004574;28;20172;-58
2021/07/31 04:19:34;;;;;;;45.13;21.17;;;;;;;22.41;83.13;96493.88;5005627;28;20540;-58
2021/07/31 04:22:01;;;;;;;25.70;18.05;;;;;;;22.52;83.49;96564.84;5006618;28;20145;-59
2021/07/31 04:24:28;;;;;;;22.05;17.55;;;;;;;22.96;80.92;96492.13;5005984;28;20058;-59
2021/07/31 04:26:55;;;;;;;30.88;16.75;;;;;;;23.13;80.61;96507.56;5004297;28;20058;-59
2021/07/31 04:29:22;;;;;;;28.77;17.42;;;;;;;23.32;79.22;96503.56;5004487;28;20060;-59
2021/07/31 04:31:49;;;;;;;28.38;20.23;;;;;;;23.16;79.21;96484.03;5004303;28;20058;-60
2021/07/31 04:34:16;;;;;;;30.27;20.20;;;;;;;23.49;79.73;96513.38;5005427;28;20060;-63
2021/07/31 04:36:43;;;;;;;32.33;19.27;;;;;;;23.41;78.67;96478.19;5005967;28;20054;-60
2021/07/31 04:39:09;;;;;;;30.98;18.80;;;;;;;23.57;78.68;96492.78;5004700;28;20350;-59
2021/07/31 04:41:37;;;;;;;30.77;19.10;;;;;;;23.03;79.30;96409.91;5006065;28;20064;-58
2021/07/31 04:44:04;;;;;;;35.58;20.77;;;;;;;23.46;80.60;96520.75;5004384;28;20054;-60
2021/07/31 04:46:31;;;;;;;31.45;20.27;;;;;;;23.60;78.96;96508.06;5004206;28;21325;-58
2021/07/31 04:48:58;;;;;;;32.20;19.98;;;;;;;23.83;74.94;96505.41;5004396;28;20508;-58
2021/07/31 04:51:24;;;;;;;23.45;19.00;;;;;;;23.81;74.31;96484.50;5003793;28;20601;-59
2021/07/31 04:53:51;;;;;;;31.08;21.35;;;;;;;23.71;73.90;96457.47;5005290;28;20550;-61
2021/07/31 04:56:18;;;;;;;30.50;19.05;;;;;;;24.07;72.63;96487.81;5004248;28;20069;-62
2021/07/31 04:58:45;;;;;;;28.25;19.85;;;;;;;24.12;72.11;96482.34;5004107;28;20053;-59
2021/07/31 05:01:12;;;;;;;34.55;18.27;;;;;;;24.58;71.62;96514.97;5004215;28;20539;-59
2021/07/31 05:03:39;;;;;;;30.08;19.70;;;;;;;24.23;71.69;96493.97;5004980;28;20512;-59
2021/07/31 05:06:06;;;;;;;30.35;19.73;;;;;;;24.27;72.16;96482.44;5004876;28;20084;-60
2021/07/31 05:08:33;;;;;;;34.47;20.13;;;;;;;24.38;72.09;96472.22;5003565;28;20054;-59
2021/07/31 05:11:07;;;;;;;31.23;19.77;;;;;;;24.14;72.18;96400.53;5004719;28;20061;-61
2021/07/31 05:13:35;;;;;;;30.27;18.92;;;;;;;24.83;69.91;96469.25;5005165;28;20058;-59
2021/07/31 05:16:03;;;;;;;31.25;21.08;;;;;;;24.99;69.68;96494.41;5003846;28;20065;-60
2021/07/31 05:18:29;;;;;;;27.42;19.08;;;;;;;24.76;69.37;96463.16;5003490;28;20057;-59
2021/07/31 05:20:58;;;;;;;31.33;18.70;;;;;;;25.09;70.28;96532.00;5003547;28;20244;-60
2021/07/31 05:23:25;;;;;;;31.13;19.73;;;;;;;25.25;70.06;96521.06;5003280;28;20068;-60
2021/07/31 05:25:52;;;;;;;30.48;17.88;;;;;;;25.23;69.14;96500.91;5004600;28;20108;-59
2021/07/31 05:28:20;;;;;;;32.65;17.02;;;;;;;24.58;69.39;96413.00;5005055;28;20424;-60
2021/07/31 05:30:47;;;;;;;28.80;18.35;;;;;;;25.16;69.10;96538.13;5003045;28;20054;-59
2021/07/31 05:33:14;;;;;;;33.10;18.90;;;;;;;25.39;69.58;96544.38;5005248;28;20436;-60
2021/07/31 05:35:41;;;;;;;34.63;18.67;;;;;;;25.50;68.90;96510.59;5005097;28;20049;-60
2021/07/31 05:38:08;;;;;;;28.88;19.30;;;;;;;25.47;69.34;96474.66;5005065;28;20060;-59
2021/07/31 05:40:36;;;;;;;29.50;20.10;;;;;;;26.07;70.17;96546.16;5004063;28;20132;-58
2021/07/31 05:43:02;;;;;;;34.40;22.33;;;;;;;24.98;70.89;96331.28;5004780;28;20631;-60
2021/07/31 05:45:29;;;;;;;29.80;22.80;;;;;;;26.23;70.36;96534.34;5002798;28;20124;-59
2021/07/31 05:47:58;;;;;;;26.15;20.40;;;;;;;26.49;67.65;96507.00;5002488;28;20104;-58
2021/07/31 05:50:25;;;;;;;37.25;22.25;;;;;;;26.72;66.22;96548.75;5004604;28;20081;-60
2021/07/31 05:52:52;;;;;;;35.30;22.90;;;;;;;26.82;68.39;96552.31;5004139;28;20054;-61
2021/07/31 05:55:19;;;;;;;33.63;22.67;;;;;;;26.60;67.74;96518.56;4988015;28;20050;-67
2021/07/31 05:57:46;;;;;;;34.20;24.52;;;;;;;26.17;68.71;96491.66;4986841;28;20057;-60
2021/07/31 06:00:13;;;;;;;32.90;22.42;;;;;;;26.67;67.72;96546.59;4992845;28;20046;-65
2021/07/31 06:02:40;;;;;;;36.83;24.75;;;;;;;26.78;67.06;96526.91;4984866;28;20481;-62
2021/07/31 06:05:08;;;;;;;31.45;23.40;;;;;;;27.10;67.00;96542.97;4995850;28;20106;-63
2021/07/31 06:07:34;;;;;;;28.17;21.75;;;;;;;27.07;66.08;96535.44;4984218;28;20054;-61
2021/07/31 06:10:03;;;;;;;29.88;20.95;;;;;;;27.39;64.89;96539.34;4989603;28;20089;-65
2021/07/31 06:12:29;;;;;;;27.80;21.80;;;;;;;27.57;64.91;96545.56;4983932;28;20050;-65
2021/07/31 06:14:56;;;;;;;28.23;21.33;;;;;;;27.63;62.87;96508.66;4984024;28;20058;-67
2021/07/31 06:17:23;;;;;;;33.00;22.02;;;;;;;27.53;61.56;96442.56;4996132;28;20050;-68
2021/07/31 06:19:50;;;;;;;28.67;21.00;;;;;;;28.11;61.28;96530.56;4982855;28;20058;-59
2021/07/31 06:22:16;;;;;;;31.80;20.85;;;;;;;27.87;59.75;96473.00;4988196;28;20323;-60
2021/07/31 06:24:43;;;;;;;28.95;18.73;;;;;;;27.55;58.91;96522.50;4999338;28;20545;-62
2021/07/31 06:27:10;;;;;;;26.50;18.90;;;;;;;27.90;58.99;96534.69;5002468;28;20060;-67
2021/07/31 06:29:37;;;;;;;40.13;18.80;;;;;;;28.32;59.62;96531.34;5001373;28;20046;-72
2021/07/31 06:32:04;;;;;;;31.13;18.73;;;;;;;28.65;58.09;96528.09;5003624;28;20056;-68
2021/07/31 06:34:31;;;;;;;30.20;16.98;;;;;;;28.93;55.88;96529.16;5003534;28;20484;-71
2021/07/31 06:36:58;;;;;;;27.65;18.75;;;;;;;29.22;53.71;96540.34;5001948;28;20463;-67
2021/07/31 06:39:25;;;;;;;26.20;16.45;;;;;;;29.35;53.54;96532.91;5003907;28;20058;-69
2021/07/31 06:41:52;;;;;;;27.98;16.98;;;;;;;29.58;52.02;96536.72;5003640;28;20065;-69
2021/07/31 06:44:19;;;;;;;25.90;17.35;;;;;;;28.39;52.32;96325.72;4998264;28;20046;-63
2021/07/31 06:46:46;;;;;;;32.03;16.88;;;;;;;29.67;52.03;96525.13;4984338;28;20129;-66
2021/07/31 06:49:12;;;;;;;28.58;16.55;;;;;;;29.10;54.11;96447.41;4986163;28;20062;-62
2021/07/31 06:51:39;;;;;;;27.77;16.83;;;;;;;29.98;52.27;96527.94;4983561;28;20057;-60
2021/07/31 06:54:06;;;;;;;28.77;16.48;;;;;;;29.86;51.61;96451.25;4996697;28;20050;-67
2021/07/31 06:56:34;;;;;;;29.23;17.67;;;;;;;30.66;50.67;96524.84;4992146;28;20050;-68
2021/07/31 06:59:04;;;;;;;28.02;17.13;;;;;;;30.25;51.34;96518.72;4983294;28;20061;-67
2021/07/31 07:01:31;;;;;;;27.92;16.27;;;;;;;30.18;51.21;96456.31;4983794;28;20062;-65
2021/07/31 07:03:58;;;;;;;27.17;16.60;;;;;;;29.27;49.45;96274.22;4984695;28;20049;-70
2021/07/31 07:06:25;;;;;;;29.60;17.05;;;;;;;30.42;49.29;96453.81;4982654;28;20058;-60
2021/07/31 07:08:52;;;;;;;31.48;16.38;;;;;;;30.80;48.74;96518.91;4983337;28;20129;-61
2021/07/31 07:11:19;;;;;;;24.77;15.60;;;;;;;30.62;48.79;96519.34;4982731;28;20129;-64
2021/07/31 07:13:46;;;;;;;25.75;16.65;;;;;;;30.94;48.82;96517.91;4981650;28;20058;-61
2021/07/31 07:16:12;;;;;;;28.13;16.23;;;;;;;31.08;48.90;96529.63;4983039;28;20484;-61
2021/07/31 07:18:39;;;;;;;25.83;17.30;;;;;;;30.67;49.64;96507.16;4983215;28;20513;-61
2021/07/31 07:21:08;;;;;;;25.88;16.13;;;;;;;29.73;52.13;96514.53;4982652;28;20046;-61
2021/07/31 07:23:36;;;;;;;28.75;18.00;;;;;;;29.75;52.26;96509.09;4983237;28;20054;-69
2021/07/31 07:26:07;;;;;;;30.73;18.45;;;;;;;30.02;51.78;96522.75;4983068;28;20081;-67
2021/07/31 07:28:34;;;;;;;30.13;18.08;;;;;;;30.28;51.05;96517.69;4983065;28;20050;-66
2021/07/31 07:31:02;;;;;;;24.05;17.48;;;;;;;30.12;51.20;96452.66;4980893;28;20050;-65
2021/07/31 07:33:29;;;;;;;25.17;16.30;;;;;;;30.81;49.28;96519.69;4982037;28;20053;-65
2021/07/31 07:35:55;;;;;;;31.15;18.00;;;;;;;30.73;50.31;96482.19;4985744;28;20058;-61
2021/07/31 07:38:22;;;;;;;30.90;17.75;;;;;;;30.22;50.29;96416.88;4984237;28;20050;-63
2021/07/31 07:40:49;;;;;;;31.05;22.10;;;;;;;29.68;51.37;96372.50;4984374;28;20050;-64
2021/07/31 07:43:15;;;;;;;24.98;15.20;;;;;;;30.88;49.77;96522.03;4988805;28;20433;-68
2021/07/31 07:45:45;;;;;;;33.60;17.60;;;;;;;30.61;50.36;96512.09;4987515;28;20426;-66
2021/07/31 07:48:11;;;;;;;32.10;18.10;;;;;;;30.90;49.84;96522.31;4986286;28;20061;-69
2021/07/31 07:50:38;;;;;;;24.33;15.05;;;;;;;30.56;47.77;96463.44;4986253;28;20530;-66
2021/07/31 07:53:05;;;;;;;30.80;14.85;;;;;;;31.14;46.69;96508.28;4986068;28;20054;-64
2021/07/31 07:55:31;;;;;;;26.73;16.02;;;;;;;31.32;48.04;96513.50;4986246;28;20054;-65
2021/07/31 07:57:58;;;;;;;28.17;16.02;;;;;;;30.90;48.95;96437.25;4997522;28;20050;-68
2021/07/31 08:00:25;;;;;;;28.40;15.80;;;;;;;31.11;49.16;96462.75;4990414;28;20050;-65
2021/07/31 08:02:51;;;;;;;27.45;16.70;;;;;;;31.27;48.83;96494.22;4995915;28;20061;-66
2021/07/31 08:05:18;;;;;;;24.15;17.02;;;;;;;31.43;47.36;96502.03;5003276;28;20100;-62
2021/07/31 08:07:45;;;;;;;27.63;18.00;;;;;;;31.44;47.42;96491.38;4998850;28;20429;-64
2021/07/31 08:10:13;;;;;;;20.95;15.32;;;;;;;31.68;46.87;96448.66;4987397;28;20628;-59
2021/07/31 08:12:39;;;;;;;28.02;15.18;;;;;;;31.44;45.98;96452.06;4986709;28;20135;-63
2021/07/31 08:15:07;;;;;;;32.40;19.25;;;;;;;32.04;46.11;96491.25;4986576;28;20603;-60
2021/07/31 08:17:34;;;;;;;26.73;15.52;;;;;;;32.32;46.19;96486.19;4987009;28;20058;-66
2021/07/31 08:20:01;;;;;;;27.88;15.70;;;;;;;30.42;48.39;96362.34;5005912;28;20525;-67
2021/07/31 08:22:28;;;;;;;26.35;15.65;;;;;;;31.44;47.34;96491.38;4994111;28;20061;-59
2021/07/31 08:24:55;;;;;;;31.45;17.00;;;;;;;31.46;46.72;96448.69;5005446;28;20062;-59
2021/07/31 08:27:21;;;;;;;26.33;14.73;;;;;;;30.26;47.36;96280.22;4991902;28;20054;-59
2021/07/31 08:29:48;;;;;;;28.00;15.63;;;;;;;31.77;48.07;96479.88;4995379;28;20049;-62
2021/07/31 08:32:15;;;;;;;21.15;14.60;;;;;;;31.61;47.02;96429.13;4997860;28;20567;-59
2021/07/31 08:34:42;;;;;;;24.42;14.45;;;;;;;31.61;46.97;96454.91;4992496;28;20058;-61
2021/07/31 08:37:10;;;;;;;23.42;15.82;;;;;;;32.11;47.34;96478.47;4989748;28;20058;-69
2021/07/31 08:39:37;;;;;;;28.10;16.42;;;;;;;31.82;47.76;96442.59;4991715;28;20057;-68
2021/07/31 08:42:09;;;;;;;20.15;14.43;;;;;;;32.17;46.28;96421.88;4983922;28;20069;-62
2021/07/31 08:44:36;;;;;;;27.40;14.32;;;;;;;32.33;47.14;96472.63;4991449;28;20502;-65
2021/07/31 08:47:04;;;;;;;24.40;15.68;;;;;;;32.17;46.85;96381.75;5003405;28;20064;-64
2021/07/31 08:49:38;;;;;;;25.08;15.93;;;;;;;32.95;46.88;96466.03;4991061;28;20378;-71
2021/07/31 08:52:07;;;;;;;24.00;15.10;;;;;;;32.04;47.29;96433.16;4989363;28;20060;-68
2021/07/31 08:54:38;;;;;;;24.20;15.15;;;;;;;32.04;48.10;96470.44;4992759;28;20520;-62
2021/07/31 08:57:07;;;;;;;27.00;15.93;;;;;;;32.40;47.90;96469.25;4999355;28;20525;-68
2021/07/31 08:59:34;;;;;;;23.48;15.95;;;;;;;32.05;47.38;96466.25;4993063;28;20502;-64
2021/07/31 09:02:01;;;;;;;20.42;13.20;;;;;;;32.06;46.49;96485.78;5002374;28;20077;-66
2021/07/31 09:04:28;;;;;;;26.90;14.70;;;;;;;32.16;46.35;96449.00;4997123;28;20069;-65
2021/07/31 09:06:55;;;;;;;30.45;18.70;;;;;;;32.24;46.01;96370.50;4997203;28;20060;-61
2021/07/31 09:09:26;;;;;;;22.77;14.95;;;;;;;33.38;44.55;96448.97;4984516;28;20074;-61
2021/07/31 09:12:08;;;;;;;23.67;14.80;;;;;;;33.74;43.17;96448.34;4984857;28;20054;-64
2021/07/31 09:14:43;;;;;;;23.67;14.07;;;;;;;33.98;42.78;96443.91;5003208;28;20089;-63
2021/07/31 09:17:23;;;;;;;32.83;20.30;;;;;;;33.85;43.25;96446.66;4993289;28;20081;-66
2021/07/31 09:19:50;;;;;;;36.67;20.77;;;;;;;33.87;41.84;96395.16;4990329;28;20436;-60
2021/07/31 09:22:17;;;;;;;32.55;16.70;;;;;;;34.21;41.96;96445.97;4994843;28;20045;-69
2021/07/31 09:24:44;;;;;;;25.60;13.25;;;;;;;34.55;41.03;96423.31;4992907;28;20536;-71
2021/07/31 09:27:26;;;;;;;27.75;15.05;;;;;;;34.19;40.34;96442.09;4996223;28;20473;-71
2021/07/31 09:30:04;;;;;;;41.67;22.80;;;;;;;33.90;39.06;96425.72;4987658;28;20042;-71
2021/07/31 09:32:39;;;;;;;29.55;17.08;;;;;;;33.59;39.46;96396.25;4998794;28;20046;-62
2021/07/31 09:35:20;;;;;;;26.00;14.07;;;;;;;34.59;38.52;96433.19;4989128;28;20066;-68
2021/07/31 09:37:52;;;;;;;26.95;14.35;;;;;;;35.10;37.76;96429.00;4982068;28;20563;-69
2021/07/31 09:40:30;;;;;;;20.83;12.30;;;;;;;33.80;38.23;96392.91;4983422;28;20058;-68
2021/07/31 09:43:12;;;;;;;24.60;14.25;;;;;;;34.51;39.30;96414.22;4982591;28;20062;-70
2021/07/31 09:45:39;;;;;;;29.15;16.17;;;;;;;35.06;37.83;96424.91;4982884;28;20065;-69
2021/07/31 09:48:08;;;;;;;26.23;14.25;;;;;;;34.77;37.82;96414.34;4984241;28;20076;-69
2021/07/31 09:50:38;;;;;;;31.38;16.95;;;;;;;34.88;38.56;96417.06;5001324;28;20061;-69
2021/07/31 09:53:12;;;;;;;28.13;14.52;;;;;;;35.53;36.41;96417.25;5002792;28;20477;-70
2021/07/31 09:55:48;;;;;;;25.40;14.00;;;;;;;35.95;35.29;96407.53;5001760;28;20417;-69
2021/07/31 09:58:17;;;;;;;22.95;13.63;;;;;;;35.11;36.52;96303.03;5004155;28;20058;-69
2021/07/31 10:00:45;;;;;;;21.35;14.38;;;;;;;35.91;36.47;96410.00;5004688;28;20140;-69
2021/07/31 10:03:14;;;;;;;25.73;14.07;;;;;;;36.24;36.17;96409.28;5002307;28;20050;-69
2021/07/31 10:05:44;;;;;;;29.67;13.90;;;;;;;36.44;34.54;96417.25;5002635;28;20108;-68
2021/07/31 10:08:31;;;;;;;20.52;13.23;;;;;;;36.98;34.63;96415.75;5004407;28;20107;-68
2021/07/31 10:10:58;;;;;;;22.52;12.98;;;;;;;37.17;33.22;96387.44;5002759;28;20460;-68
2021/07/31 10:13:25;;;;;;;32.70;15.43;;;;;;;37.61;32.91;96413.06;5004425;28;20053;-63
2021/07/31 10:15:51;;;;;;;28.35;13.15;;;;;;;37.40;32.59;96386.31;5001680;28;20521;-61
2021/07/31 10:18:22;;;;;;;27.00;13.55;;;;;;;37.89;30.44;96410.22;5004164;28;20062;-60
2021/07/31 10:20:50;;;;;;;22.77;12.85;;;;;;;38.00;31.40;96397.56;5003835;28;20089;-60
2021/07/31 10:24:08;;;;;;;21.85;13.77;;;;;;;38.25;29.61;96397.91;5004015;28;20103;-64
2021/07/31 10:26:36;;;;;;;24.10;12.52;;;;;;;38.48;29.06;96370.59;4994979;28;20061;-68
2021/07/31 10:29:26;;;;;;;22.60;11.30;;;;;;;38.64;27.67;96391.69;4982870;28;20547;-68
2021/07/31 10:31:55;;;;;;;25.40;12.02;;;;;;;37.95;31.03;96389.03;4982207;28;20563;-67
2021/07/31 10:34:57;;;;;;;19.23;11.25;;;;;;;36.44;31.71;96382.63;4983009;28;20564;-69
2021/07/31 10:37:27;;;;;;;21.58;12.98;;;;;;;36.84;28.92;96385.38;4982254;28;20432;-69
2021/07/31 10:39:56;;;;;;;26.33;12.05;;;;;;;37.10;26.88;96385.28;4982034;28;20528;-68
2021/07/31 10:42:23;;;;;;;22.65;12.88;;;;;;;37.44;29.76;96386.75;4983827;28;20505;-68
2021/07/31 10:45:15;;;;;;;23.27;11.70;;;;;;;37.91;28.57;96377.81;4982488;28;20097;-69
2021/07/31 10:47:51;;;;;;;27.40;16.00;;;;;;;37.80;27.73;96350.00;4983645;28;20072;-69
2021/07/31 10:52:52;;;;;;;;;;;;;;;38.23;26.69;96357.94;4984883;28;20488;-68
2021/07/31 10:55:20;;;;;;;25.75;11.82;;;;;;;38.34;27.47;96356.81;4983772;28;19958;-68
2021/07/31 10:57:52;;;;;;;23.40;11.43;;;;;;;37.96;26.77;96356.63;4982573;28;20509;-69
2021/07/31 11:00:28;;;;;;;22.63;11.75;;;;;;;37.69;27.18;96355.31;4983653;28;20436;-65
2021/07/31 11:03:03;;;;;;;19.67;12.60;;;;;;;37.16;30.04;96354.13;4989047;28;20387;-66
2021/07/31 11:05:54;;;;;;;29.92;14.38;;;;;;;36.91;30.92;96364.47;4992943;28;20041;-66
2021/07/31 11:08:31;;;;;;;25.45;12.38;;;;;;;36.87;31.42;96361.16;4992525;28;20145;-68
2021/07/31 11:11:19;;;;;;;20.80;13.25;;;;;;;36.47;32.15;96332.44;4991535;28;20060;-69
2021/07/31 11:13:46;;;;;;;23.75;14.77;;;;;;;36.16;34.54;96367.25;4988069;28;20460;-68
2021/07/31 11:16:19;;;;;;;24.15;15.13;;;;;;;35.71;35.51;96367.38;4991485;28;20054;-68
2021/07/31 11:18:52;;;;;;;32.55;15.27;;;;;;;35.86;35.61;96367.63;4994059;28;20064;-69
2021/07/31 11:21:27;;;;;;;19.52;12.38;;;;;;;35.70;36.25;96365.81;4995553;28;20045;-67
2021/07/31 11:24:13;;;;;;;24.83;14.68;;;;;;;35.07;36.72;96365.97;4996488;28;20042;-67
2021/07/31 11:26:45;;;;;;;21.70;13.40;;;;;;;34.57;36.83;96300.56;5002071;28;20068;-69